createdAt,value
2023-03-15T00:01:20.900Z,1.40
2023-03-15T00:03:51.410Z,1.20
2023-03-15T00:06:21.462Z,1.17
2023-03-15T00:08:52.485Z,1.25
2023-03-15T00:11:22.414Z,1.42
2023-03-15T00:13:54.840Z,1.40
2023-03-15T00:16:27.645Z,1.40
2023-03-15T00:18:58.769Z,1.40
2023-03-15T00:21:30.383Z,1.50
2023-03-15T00:24:00.246Z,1.50
2023-03-15T00:26:31.002Z,1.60
2023-03-15T00:29:02.500Z,1.30
2023-03-15T00:31:32.229Z,1.20
2023-03-15T00:34:03.204Z,1.23
2023-03-15T00:36:35.390Z,1.40
2023-03-15T00:39:06.064Z,1.40
2023-03-15T00:41:36.482Z,1.38
2023-03-15T00:44:08.453Z,1.50
2023-03-15T00:46:38.922Z,1.40
2023-03-15T00:49:08.668Z,1.23
2023-03-15T00:51:39.135Z,1.27
2023-03-15T00:54:09.668Z,1.40
2023-03-15T00:56:40.249Z,1.15
2023-03-15T00:59:12.457Z,1.25
2023-03-15T01:01:45.107Z,1.17
2023-03-15T01:04:15.557Z,1.25
2023-03-15T01:06:45.548Z,1.30
2023-03-15T01:09:15.921Z,1.20
2023-03-15T01:11:45.720Z,1.13
2023-03-15T01:14:19.185Z,1.08
2023-03-15T01:16:49.586Z,1.00
2023-03-15T01:19:19.696Z,0.80
2023-03-15T01:21:50.012Z,1.00
2023-03-15T01:24:20.060Z,0.95
2023-03-15T01:26:50.136Z,0.90
2023-03-15T01:29:21.560Z,0.90
2023-03-15T01:31:52.074Z,1.00
2023-03-15T01:34:22.079Z,0.80
2023-03-15T01:36:55.374Z,1.02
2023-03-15T01:39:25.243Z,0.85
2023-03-15T01:41:55.410Z,0.75
2023-03-15T01:44:52.839Z,0.80
2023-03-15T01:47:26.262Z,0.50
2023-03-15T01:50:04.780Z,0.40
2023-03-15T01:52:40.331Z,0.40
2023-03-15T01:55:15.468Z,0.28
2023-03-15T01:57:52.117Z,0.47
2023-03-15T02:00:25.861Z,0.47
2023-03-15T02:03:01.272Z,0.80
2023-03-15T02:05:36.627Z,0.65
2023-03-15T02:08:12.083Z,0.70
2023-03-15T02:10:49.341Z,0.85
2023-03-15T02:13:24.714Z,0.90
2023-03-15T02:15:58.694Z,0.77
2023-03-15T02:18:29.369Z,1.00
2023-03-15T02:21:11.105Z,0.88
2023-03-15T02:23:41.332Z,0.90
2023-03-15T02:26:25.770Z,1.08
2023-03-15T02:28:58.687Z,0.60
2023-03-15T02:31:29.900Z,0.77
2023-03-15T02:33:59.747Z,0.73
2023-03-15T02:36:32.402Z,0.88
2023-03-15T02:39:03.932Z,1.00
2023-03-15T02:41:39.558Z,0.90
2023-03-15T02:44:18.333Z,1.00
2023-03-15T02:46:53.217Z,0.90
2023-03-15T02:49:30.234Z,0.70
2023-03-15T02:52:00.088Z,1.00
2023-03-15T02:54:30.380Z,0.60
2023-03-15T02:57:00.766Z,0.80
2023-03-15T02:59:32.842Z,0.60
2023-03-15T03:02:03.439Z,0.85
2023-03-15T03:04:33.190Z,0.80
2023-03-15T03:07:03.680Z,0.60
2023-03-15T03:09:34.246Z,0.80
2023-03-15T03:12:04.672Z,0.90
2023-03-15T03:14:37.154Z,0.82
2023-03-15T03:17:07.598Z,0.75
2023-03-15T03:19:37.968Z,0.82
2023-03-15T03:22:08.443Z,0.60
2023-03-15T03:24:38.898Z,0.70
2023-03-15T03:27:09.432Z,0.77
2023-03-15T03:29:41.746Z,0.75
2023-03-15T03:32:12.569Z,0.70
2023-03-15T03:34:42.484Z,0.50
2023-03-15T03:37:13.079Z,0.50
2023-03-15T03:39:43.010Z,0.90
2023-03-15T03:42:13.619Z,0.63
2023-03-15T03:44:45.990Z,0.70
2023-03-15T03:47:16.479Z,0.47
2023-03-15T03:49:46.669Z,0.70
2023-03-15T03:52:16.893Z,0.60
2023-03-15T03:54:46.730Z,0.60
2023-03-15T03:57:16.959Z,0.55
2023-03-15T03:59:49.216Z,0.70
2023-03-15T04:02:19.722Z,0.70
2023-03-15T04:04:50.683Z,0.40
2023-03-15T04:07:21.047Z,0.50
2023-03-15T04:09:51.561Z,0.60
2023-03-15T04:12:21.300Z,0.43
2023-03-15T04:14:53.203Z,0.52
2023-03-15T04:17:23.694Z,0.80
2023-03-15T04:19:54.226Z,0.70
2023-03-15T04:22:24.729Z,0.57
2023-03-15T04:24:54.856Z,0.70
2023-03-15T04:27:25.212Z,0.52
2023-03-15T04:29:57.418Z,0.68
2023-03-15T04:32:28.013Z,0.80
2023-03-15T04:34:58.420Z,1.10
2023-03-15T04:37:28.644Z,0.75
2023-03-15T04:39:58.907Z,0.60
2023-03-15T04:42:29.296Z,0.73
2023-03-15T04:45:01.663Z,0.73
2023-03-15T04:47:31.625Z,0.70
2023-03-15T04:50:02.013Z,0.80
2023-03-15T04:52:32.138Z,0.52
2023-03-15T04:55:01.874Z,0.70
2023-03-15T04:57:32.137Z,0.80
2023-03-15T05:00:04.832Z,0.80
2023-03-15T05:02:36.291Z,0.70
2023-03-15T05:05:07.030Z,0.68
2023-03-15T05:07:37.897Z,0.88
2023-03-15T05:10:09.998Z,0.85
2023-03-15T05:12:40.142Z,0.70
2023-03-15T05:15:13.770Z,0.60
2023-03-15T05:17:46.797Z,0.70
2023-03-15T05:20:18.518Z,0.73
2023-03-15T05:22:48.806Z,0.80
2023-03-15T05:25:19.452Z,0.75
2023-03-15T05:27:49.782Z,0.65
2023-03-15T05:30:22.575Z,0.57
2023-03-15T05:32:52.712Z,0.82
2023-03-15T05:35:27.086Z,0.60
2023-03-15T05:37:58.714Z,0.70
2023-03-15T05:40:30.382Z,0.63
2023-03-15T05:43:00.635Z,0.65
2023-03-15T05:45:32.616Z,0.68
2023-03-15T05:48:02.918Z,0.65
2023-03-15T05:50:33.297Z,0.80
2023-03-15T05:53:03.682Z,0.60
2023-03-15T05:55:33.924Z,0.85
2023-03-15T05:58:03.677Z,0.80
2023-03-15T06:00:36.162Z,0.85
2023-03-15T06:03:06.564Z,0.70
2023-03-15T06:05:36.998Z,0.93
2023-03-15T06:08:07.676Z,0.95
2023-03-15T06:10:38.172Z,0.80
2023-03-15T06:13:08.383Z,0.75
2023-03-15T06:15:40.752Z,0.80
2023-03-15T06:18:11.333Z,0.80
2023-03-15T06:20:42.162Z,0.90
2023-03-15T06:23:13.132Z,0.68
2023-03-15T06:25:43.358Z,0.70
2023-03-15T06:28:13.709Z,0.68
2023-03-15T06:30:45.447Z,0.75
2023-03-15T06:33:15.574Z,0.82
2023-03-15T06:35:47.188Z,0.80
2023-03-15T06:38:17.606Z,0.80
2023-03-15T06:40:47.724Z,0.80
2023-03-15T06:43:19.915Z,0.90
2023-03-15T06:45:53.849Z,0.70
2023-03-15T06:48:24.640Z,0.80
2023-03-15T06:50:55.029Z,0.70
2023-03-15T06:53:25.134Z,0.80
2023-03-15T06:55:55.346Z,0.70
2023-03-15T06:58:25.648Z,0.88
2023-03-15T07:00:57.642Z,0.90
2023-03-15T07:03:27.636Z,0.70
2023-03-15T07:05:58.013Z,0.70
2023-03-15T07:08:28.200Z,0.75
2023-03-15T07:10:59.735Z,0.68
2023-03-15T07:13:30.051Z,0.82
2023-03-15T07:16:02.408Z,0.93
2023-03-15T07:18:33.894Z,0.95
2023-03-15T07:21:07.345Z,0.98
2023-03-15T07:23:38.192Z,0.80
2023-03-15T07:26:08.612Z,1.00
2023-03-15T07:28:39.126Z,1.00
2023-03-15T07:31:12.379Z,1.20
2023-03-15T07:33:42.842Z,0.85
2023-03-15T07:36:12.769Z,1.13
2023-03-15T07:38:44.241Z,1.20
2023-03-15T07:41:13.980Z,1.27
2023-03-15T07:43:44.515Z,1.25
2023-03-15T07:46:16.878Z,1.30
2023-03-15T07:48:48.703Z,1.40
2023-03-15T07:51:19.126Z,1.08
2023-03-15T07:53:49.603Z,1.10
2023-03-15T07:56:19.937Z,1.40
2023-03-15T07:58:50.357Z,1.45
2023-03-15T08:01:22.657Z,1.58
2023-03-15T08:03:53.551Z,1.30
2023-03-15T08:06:24.821Z,1.42
2023-03-15T08:08:55.037Z,1.20
2023-03-15T08:11:25.472Z,1.33
2023-03-15T08:13:55.789Z,1.20
2023-03-15T08:16:27.785Z,1.08
2023-03-15T08:18:58.042Z,1.13
2023-03-15T08:21:28.569Z,1.08
2023-03-15T08:23:58.989Z,1.23
2023-03-15T08:26:29.510Z,1.10
2023-03-15T08:28:59.125Z,1.08
2023-03-15T08:31:30.795Z,1.00
2023-03-15T08:34:01.239Z,1.30
2023-03-15T08:36:32.972Z,0.98
2023-03-15T08:39:05.808Z,1.00
2023-03-15T08:41:36.485Z,0.90
2023-03-15T08:44:06.896Z,1.05
2023-03-15T08:46:39.032Z,1.42
2023-03-15T08:49:09.511Z,0.93
2023-03-15T08:51:39.963Z,0.75
2023-03-15T08:54:10.236Z,0.98
2023-03-15T08:56:40.601Z,0.82
2023-03-15T08:59:12.826Z,0.80
2023-03-15T09:01:47.313Z,0.90
2023-03-15T09:04:17.639Z,0.80
2023-03-15T09:06:48.006Z,0.70
2023-03-15T09:09:18.932Z,0.85
2023-03-15T09:11:48.915Z,0.73
2023-03-15T09:14:19.269Z,0.57
2023-03-15T09:16:51.481Z,0.65
2023-03-15T09:19:21.650Z,0.80
2023-03-15T09:21:52.843Z,0.47
2023-03-15T09:24:23.196Z,0.70
2023-03-15T09:26:52.939Z,0.88
2023-03-15T09:29:22.982Z,0.70
2023-03-15T09:31:55.446Z,0.80
2023-03-15T09:34:27.562Z,0.82
2023-03-15T09:37:00.703Z,0.75
2023-03-15T09:39:30.669Z,0.65
2023-03-15T09:42:02.859Z,0.93
2023-03-15T09:44:48.500Z,0.90
2023-03-15T09:47:37.382Z,0.80
2023-03-15T09:50:18.818Z,0.68
2023-03-15T09:52:54.368Z,0.63
2023-03-15T09:55:27.923Z,0.82
2023-03-15T09:58:03.297Z,0.90
2023-03-15T10:00:42.501Z,0.80
2023-03-15T10:03:25.680Z,0.65
2023-03-15T10:06:01.551Z,0.70
2023-03-15T10:08:32.056Z,0.60
2023-03-15T10:11:15.704Z,0.63
2023-03-15T10:14:12.102Z,0.60
2023-03-15T10:16:45.730Z,0.70
2023-03-15T10:19:27.872Z,0.70
2023-03-15T10:22:05.131Z,0.77
2023-03-15T10:24:46.702Z,0.68
2023-03-15T10:27:23.969Z,0.73
2023-03-15T10:29:58.777Z,0.82
2023-03-15T10:32:37.331Z,0.77
2023-03-15T10:35:19.267Z,0.75
2023-03-15T10:37:49.862Z,0.50
2023-03-15T10:40:45.829Z,0.60
2023-03-15T10:43:21.477Z,0.30
2023-03-15T10:46:03.178Z,0.40
2023-03-15T10:48:36.054Z,0.55
2023-03-15T10:51:26.325Z,0.43
2023-03-15T10:54:01.506Z,0.38
2023-03-15T10:56:37.958Z,0.57
2023-03-15T10:59:20.302Z,0.70
2023-03-15T11:01:55.322Z,0.47
2023-03-15T11:04:29.545Z,0.60
2023-03-15T11:07:08.215Z,0.50
2023-03-15T11:09:46.081Z,0.47
2023-03-15T11:12:25.743Z,0.80
2023-03-15T11:15:01.351Z,0.73
2023-03-15T11:17:37.164Z,0.50
2023-03-15T11:20:26.927Z,0.55
2023-03-15T11:23:00.477Z,0.43
2023-03-15T11:25:34.154Z,0.40
2023-03-15T11:28:04.979Z,0.45
2023-03-15T11:30:35.464Z,0.63
2023-03-15T11:33:11.858Z,0.50
2023-03-15T11:35:49.056Z,0.57
2023-03-15T11:38:33.665Z,0.50
2023-03-15T11:41:18.111Z,0.40
2023-03-15T11:44:00.861Z,0.47
2023-03-15T11:46:36.710Z,0.50
2023-03-15T11:49:19.723Z,0.45
2023-03-15T11:51:50.193Z,0.40
2023-03-15T11:54:24.586Z,0.60
2023-03-15T11:56:58.024Z,0.70
2023-03-15T11:59:33.145Z,0.55
2023-03-15T12:02:50.562Z,0.47
2023-03-15T12:05:46.796Z,0.40
2023-03-15T12:08:27.374Z,0.40
2023-03-15T12:11:00.917Z,0.40
2023-03-15T12:13:34.166Z,0.43
2023-03-15T12:16:08.342Z,0.60
2023-03-15T12:18:48.309Z,0.32
2023-03-15T12:21:25.274Z,0.30
2023-03-15T12:24:06.698Z,0.30
2023-03-15T12:27:05.253Z,0.40
2023-03-15T12:29:38.554Z,0.45
2023-03-15T12:32:18.636Z,0.57
2023-03-15T12:34:53.253Z,0.22
2023-03-15T12:37:27.758Z,0.20
2023-03-15T12:40:26.209Z,0.40
2023-03-15T12:43:05.538Z,0.40
2023-03-15T12:45:48.813Z,0.40
2023-03-15T12:48:27.484Z,0.30
2023-03-15T12:51:35.703Z,0.50
2023-03-15T12:54:07.330Z,0.30
2023-03-15T12:56:51.777Z,0.45
2023-03-15T12:59:58.509Z,0.60
2023-03-15T13:02:43.878Z,0.30
2023-03-15T13:05:23.491Z,0.65
2023-03-15T13:08:09.503Z,0.50
2023-03-15T13:11:12.581Z,0.40
2023-03-15T13:14:06.518Z,0.45
2023-03-15T13:16:46.687Z,0.30
2023-03-15T13:19:25.417Z,0.65
2023-03-15T13:22:09.844Z,0.38
2023-03-15T13:24:52.816Z,0.35
2023-03-15T13:27:46.035Z,0.30
2023-03-15T13:30:37.400Z,0.45
2023-03-15T13:33:24.573Z,0.50
2023-03-15T13:36:01.678Z,0.40
2023-03-15T13:38:34.867Z,0.60
2023-03-15T13:41:07.677Z,0.45
2023-03-15T13:43:43.030Z,0.40
2023-03-15T13:46:13.621Z,0.50
2023-03-15T13:48:49.029Z,0.30
2023-03-15T13:51:26.125Z,0.65
2023-03-15T13:54:02.526Z,0.43
2023-03-15T13:56:48.844Z,0.40
2023-03-15T13:59:21.012Z,0.28
2023-03-15T14:01:54.922Z,0.60
2023-03-15T14:04:32.557Z,0.70
2023-03-15T14:07:32.137Z,0.70
2023-03-15T14:10:25.816Z,0.63
2023-03-15T14:12:58.381Z,0.60
2023-03-15T14:15:45.184Z,0.68
2023-03-15T14:18:24.639Z,0.40
2023-03-15T14:21:03.040Z,0.60
2023-03-15T14:23:34.523Z,0.50
2023-03-15T14:26:15.335Z,0.47
2023-03-15T14:28:53.739Z,0.52
2023-03-15T14:31:28.335Z,0.30
2023-03-15T14:34:07.787Z,0.40
2023-03-15T14:36:46.724Z,0.63
2023-03-15T14:39:27.281Z,0.25
2023-03-15T14:41:58.256Z,0.40
2023-03-15T14:44:30.564Z,0.50
2023-03-15T14:47:02.537Z,0.45
2023-03-15T14:49:32.949Z,0.50
2023-03-15T14:52:08.722Z,0.22
2023-03-15T14:54:39.148Z,0.30
2023-03-15T14:57:10.789Z,0.50
2023-03-15T14:59:42.021Z,0.22
2023-03-15T15:02:20.174Z,0.35
2023-03-15T15:04:50.952Z,0.45
2023-03-15T15:07:24.110Z,0.30
2023-03-15T15:09:54.908Z,0.40
2023-03-15T15:12:25.730Z,0.43
2023-03-15T15:14:57.353Z,0.55
2023-03-15T15:17:28.637Z,0.65
2023-03-15T15:19:58.624Z,0.45
2023-03-15T15:22:31.232Z,0.60
2023-03-15T15:25:01.430Z,0.60
2023-03-15T15:27:32.154Z,0.55
2023-03-15T15:30:02.642Z,0.30
2023-03-15T15:32:34.332Z,0.20
2023-03-15T15:35:05.524Z,0.60
2023-03-15T15:37:38.315Z,0.50
2023-03-15T15:40:18.899Z,0.25
2023-03-15T15:42:49.657Z,0.40
2023-03-15T15:45:21.585Z,0.50
2023-03-15T15:47:52.218Z,0.45
2023-03-15T15:50:24.881Z,0.50
2023-03-15T15:52:58.936Z,0.32
2023-03-15T15:55:34.902Z,0.47
2023-03-15T15:58:10.846Z,0.57
2023-03-15T16:00:41.490Z,0.30
2023-03-15T16:03:17.373Z,0.40
2023-03-15T16:05:47.584Z,0.50
2023-03-15T16:08:26.676Z,0.40
2023-03-15T16:10:56.723Z,0.30
2023-03-15T16:13:27.409Z,0.45
2023-03-15T16:15:58.336Z,0.50
2023-03-15T16:18:29.140Z,0.30
2023-03-15T16:20:59.761Z,0.35
2023-03-15T16:23:32.064Z,0.40
2023-03-15T16:26:02.071Z,0.50
2023-03-15T16:28:33.418Z,0.70
2023-03-15T16:31:03.531Z,0.35
2023-03-15T16:33:35.098Z,1.02
2023-03-15T16:36:06.302Z,0.93
2023-03-15T16:38:39.577Z,0.85
2023-03-15T16:41:13.784Z,0.88
2023-03-15T16:43:46.248Z,0.50
2023-03-15T16:46:19.260Z,0.50
2023-03-15T16:48:49.872Z,0.95
2023-03-15T16:51:20.788Z,0.50
2023-03-15T16:53:57.560Z,0.60
2023-03-15T16:56:38.262Z,0.40
2023-03-15T16:59:14.310Z,0.47
2023-03-15T17:01:44.960Z,0.35
2023-03-15T17:04:16.460Z,0.60
2023-03-15T17:06:48.594Z,0.45
2023-03-15T17:09:25.402Z,0.57
2023-03-15T17:11:56.354Z,0.55
2023-03-15T17:14:35.095Z,0.50
2023-03-15T17:17:05.754Z,0.32
2023-03-15T17:19:37.621Z,0.40
2023-03-15T17:22:10.355Z,0.35
2023-03-15T17:24:43.211Z,0.35
2023-03-15T17:27:23.361Z,0.60
2023-03-15T17:29:53.315Z,0.40
2023-03-15T17:32:24.059Z,0.50
2023-03-15T17:34:59.294Z,0.30
2023-03-15T17:37:35.486Z,0.47
2023-03-15T17:40:20.148Z,0.63
2023-03-15T17:42:51.874Z,0.60
2023-03-15T17:45:25.324Z,0.95
2023-03-15T17:47:55.910Z,1.00
2023-03-15T17:50:27.978Z,0.90
2023-03-15T17:53:01.983Z,0.63
2023-03-15T17:55:35.529Z,0.60
2023-03-15T17:58:11.905Z,0.55
2023-03-15T18:00:44.069Z,0.80
2023-03-15T18:03:17.166Z,0.47
2023-03-15T18:05:48.585Z,0.40
2023-03-15T18:08:21.692Z,0.50
2023-03-15T18:10:55.385Z,0.47
2023-03-15T18:13:27.321Z,0.65
2023-03-15T18:15:58.052Z,0.40
2023-03-15T18:18:28.985Z,0.60
2023-03-15T18:20:59.916Z,0.38
2023-03-15T18:23:30.349Z,0.35
2023-03-15T18:26:05.205Z,0.63
2023-03-15T18:28:36.009Z,0.65
2023-03-15T18:31:06.955Z,0.85
2023-03-15T18:33:38.092Z,0.60
2023-03-15T18:36:09.394Z,0.80
2023-03-15T18:38:40.262Z,0.77
2023-03-15T18:41:20.706Z,0.70
2023-03-15T18:43:52.701Z,1.30
2023-03-15T18:46:25.734Z,1.80
2023-03-15T18:48:56.910Z,2.25
2023-03-15T18:51:28.555Z,2.10
2023-03-15T18:53:59.496Z,1.85
2023-03-15T18:56:34.635Z,1.88
2023-03-15T18:59:05.433Z,2.20
2023-03-15T19:01:36.073Z,1.40
2023-03-15T19:04:06.824Z,1.17
2023-03-15T19:06:38.015Z,1.33
2023-03-15T19:09:08.956Z,1.10
2023-03-15T19:11:42.299Z,0.73
2023-03-15T19:14:14.566Z,0.70
2023-03-15T19:16:45.383Z,0.80
2023-03-15T19:19:16.058Z,0.65
2023-03-15T19:21:46.116Z,0.90
2023-03-15T19:24:16.481Z,0.77
2023-03-15T19:26:49.079Z,1.20
2023-03-15T19:29:19.549Z,1.08
2023-03-15T19:31:50.323Z,1.13
2023-03-15T19:34:21.456Z,1.65
2023-03-15T19:36:52.169Z,2.20
2023-03-15T19:39:22.693Z,2.20
2023-03-15T19:41:55.351Z,2.10
2023-03-15T19:44:26.064Z,1.95
2023-03-15T19:46:57.336Z,2.08
2023-03-15T19:49:27.846Z,1.75
2023-03-15T19:51:57.928Z,1.83
2023-03-15T19:54:31.389Z,2.10
2023-03-15T19:57:04.047Z,1.80
2023-03-15T19:59:40.348Z,1.85
2023-03-15T20:02:13.068Z,1.67
2023-03-15T20:04:43.978Z,1.80
2023-03-15T20:07:15.062Z,1.60
2023-03-15T20:09:45.857Z,1.70
2023-03-15T20:12:18.113Z,1.50
2023-03-15T20:14:48.649Z,1.60
2023-03-15T20:17:20.918Z,1.42
2023-03-15T20:19:50.696Z,1.42
2023-03-15T20:22:21.193Z,1.23
2023-03-15T20:24:51.715Z,1.20
2023-03-15T20:27:25.821Z,1.23
2023-03-15T20:29:58.380Z,1.30
2023-03-15T20:32:29.146Z,1.20
2023-03-15T20:35:00.634Z,1.63
2023-03-15T20:37:36.581Z,1.63
2023-03-15T20:40:09.454Z,1.70
2023-03-15T20:42:44.920Z,1.25
2023-03-15T20:45:18.565Z,1.50
2023-03-15T20:47:49.364Z,1.30
2023-03-15T20:50:21.625Z,1.20
2023-03-15T20:52:52.579Z,1.40
2023-03-15T20:55:22.543Z,1.20
2023-03-15T20:57:55.051Z,1.05
2023-03-15T21:00:27.777Z,1.05
2023-03-15T21:02:58.110Z,1.40
2023-03-15T21:05:28.470Z,1.00
2023-03-15T21:07:58.910Z,1.20
2023-03-15T21:10:28.901Z,1.20
2023-03-15T21:13:09.884Z,0.98
2023-03-15T21:15:50.076Z,1.23
2023-03-15T21:18:24.724Z,1.08
2023-03-15T21:21:05.784Z,1.10
2023-03-15T21:23:40.807Z,0.90
2023-03-15T21:26:17.528Z,0.98
2023-03-15T21:28:51.184Z,0.80
2023-03-15T21:31:23.455Z,0.95
2023-03-15T21:33:55.919Z,1.10
2023-03-15T21:36:28.229Z,1.00
2023-03-15T21:39:00.812Z,1.15
2023-03-15T21:41:34.652Z,0.95
2023-03-15T21:44:07.930Z,1.10
2023-03-15T21:46:39.690Z,1.20
2023-03-15T21:49:13.154Z,0.85
2023-03-15T21:51:47.616Z,1.00
2023-03-15T21:54:19.225Z,1.17
2023-03-15T21:56:49.891Z,1.20
2023-03-15T21:59:28.424Z,1.05
2023-03-15T22:01:59.165Z,1.10
2023-03-15T22:04:29.815Z,1.05
2023-03-15T22:07:09.034Z,0.80
2023-03-15T22:09:41.759Z,0.95
2023-03-15T22:12:15.143Z,0.85
2023-03-15T22:14:56.810Z,1.10
2023-03-15T22:17:35.009Z,1.00
2023-03-15T22:20:08.479Z,0.93
2023-03-15T22:22:39.017Z,1.00
2023-03-15T22:25:10.681Z,0.77
2023-03-15T22:27:42.166Z,0.77
2023-03-15T22:30:18.223Z,0.98
2023-03-15T22:32:48.736Z,0.95
2023-03-15T22:35:20.019Z,1.05
2023-03-15T22:37:56.853Z,1.10
2023-03-15T22:40:29.638Z,0.95
2023-03-15T22:43:00.437Z,0.73
2023-03-15T22:45:32.599Z,0.95
2023-03-15T22:48:03.154Z,1.00
2023-03-15T22:50:33.248Z,0.93
2023-03-15T22:53:03.352Z,0.98
2023-03-15T22:55:33.292Z,1.25
2023-03-15T22:58:04.070Z,0.90
2023-03-15T23:00:36.304Z,1.15
2023-03-15T23:03:06.848Z,1.13
2023-03-15T23:05:37.703Z,1.20
2023-03-15T23:08:08.803Z,1.00
2023-03-15T23:10:38.898Z,0.88
2023-03-15T23:13:09.374Z,0.80
2023-03-15T23:15:42.035Z,0.98
2023-03-15T23:18:14.195Z,0.77
2023-03-15T23:20:44.847Z,0.95
2023-03-15T23:23:15.028Z,0.90
2023-03-15T23:25:47.639Z,0.80
2023-03-15T23:28:19.754Z,1.08
2023-03-15T23:30:51.301Z,0.80
2023-03-15T23:33:21.494Z,1.00
2023-03-15T23:35:53.351Z,0.82
2023-03-15T23:38:23.780Z,0.63
2023-03-15T23:40:57.595Z,0.73
2023-03-15T23:43:28.289Z,0.77
2023-03-15T23:46:03.984Z,0.55
2023-03-15T23:48:37.631Z,0.80
2023-03-15T23:51:09.637Z,0.50
2023-03-15T23:53:42.878Z,0.80
2023-03-15T23:56:13.246Z,0.65
2023-03-15T23:58:43.480Z,0.60
